Time;durP1;ratioP1;P1;durP2;ratioP2;P2;SDS_P1;SDS_P2;PMS_P1;PMS_P2;Temp;Humidity;BMP_temperature;BMP_pressure;BME280_temperature;BME280_humidity;BME280_pressure;Samples;Min_cycle;Max_cycle;Signal;HPM_P1;HPM_P2
2023/07/28 00:00:04;;;;;;;7.38;5.75;;;;;;;;;;5092685;28;20024;-74
2023/07/28 00:02:29;;;;;;;9.60;6.65;;;;;;;;;;5057986;28;20035;-74
2023/07/28 00:04:55;;;;;;;12.05;7.68;;;;;;;;;;5058520;28;20095;-74
2023/07/28 00:07:20;;;;;;;10.73;7.00;;;;;;;;;;5105674;28;20515;-74
2023/07/28 00:09:45;;;;;;;9.30;6.90;;;;;;;;;;5094310;28;20456;-75
2023/07/28 00:12:11;;;;;;;8.57;5.70;;;;;;;;;;5091068;28;20027;-74
2023/07/28 00:14:36;;;;;;;8.98;6.72;;;;;;;;;;5098977;28;20065;-75
2023/07/28 00:17:01;;;;;;;10.20;6.57;;;;;;;;;;5081477;28;20024;-75
2023/07/28 00:19:27;;;;;;;8.88;5.75;;;;;;;;;;5096514;28;20107;-75
2023/07/28 00:21:52;;;;;;;12.80;8.20;;;;;;;;;;5077714;28;20106;-75
2023/07/28 00:24:18;;;;;;;8.52;6.35;;;;;;;;;;5096276;28;20393;-75
2023/07/28 00:26:43;;;;;;;12.00;6.60;;;;;;;;;;5083034;28;20023;-75
2023/07/28 00:29:09;;;;;;;9.50;6.68;;;;;;;;;;5098624;28;20024;-75
2023/07/28 00:31:34;;;;;;;10.52;6.53;;;;;;;;;;5098270;28;20489;-74
2023/07/28 00:34:00;;;;;;;9.18;7.05;;;;;;;;;;5097934;28;20023;-74
2023/07/28 00:36:25;;;;;;;10.93;7.47;;;;;;;;;;5095462;28;20020;-74
2023/07/28 00:38:50;;;;;;;11.40;7.88;;;;;;;;;;5096230;28;20125;-74
2023/07/28 00:41:15;;;;;;;11.65;8.27;;;;;;;;;;5096042;28;20031;-74
2023/07/28 00:43:41;;;;;;;10.18;6.95;;;;;;;;;;5061084;28;20114;-74
2023/07/28 00:46:06;;;;;;;10.38;8.27;;;;;;;;;;5091695;28;20414;-74
2023/07/28 00:48:32;;;;;;;10.88;7.85;;;;;;;;;;5097660;28;20019;-74
2023/07/28 00:50:57;;;;;;;11.75;8.40;;;;;;;;;;5098115;28;20526;-74
2023/07/28 00:53:23;;;;;;;11.63;8.23;;;;;;;;;;5098279;28;20024;-74
2023/07/28 00:55:49;;;;;;;13.07;8.00;;;;;;;;;;5097350;28;20023;-74
2023/07/28 00:58:14;;;;;;;11.95;8.98;;;;;;;;;;5081345;28;20027;-74
2023/07/28 01:00:39;;;;;;;13.27;8.32;;;;;;;;;;5080607;28;20027;-74
2023/07/28 01:03:05;;;;;;;12.82;8.45;;;;;;;;;;5098169;28;20533;-74
2023/07/28 01:06:16;;;;;;;12.07;8.07;;;;;;;;;;5097839;28;20047;-74
2023/07/28 01:08:47;;;;;;;11.88;8.75;;;;;;;;;;5042642;28;20034;-74
2023/07/28 01:11:13;;;;;;;10.25;6.50;;;;;;;;;;5072441;28;20072;-74
2023/07/28 01:13:39;;;;;;;11.38;8.95;;;;;;;;;;5097787;28;20496;-74
2023/07/28 01:16:04;;;;;;;13.05;8.45;;;;;;;;;;5080238;28;20123;-73
2023/07/28 01:18:29;;;;;;;11.65;8.27;;;;;;;;;;5072752;28;20061;-74
2023/07/28 01:20:56;;;;;;;13.43;8.38;;;;;;;;;;5056641;28;20021;-74
2023/07/28 01:23:38;;;;;;;15.45;9.60;;;;;;;;;;5057366;28;20021;-74
2023/07/28 01:26:11;;;;;;;16.40;9.77;;;;;;;;;;5057385;28;20020;-74
2023/07/28 01:28:37;;;;;;;12.63;8.68;;;;;;;;;;5076056;28;20098;-74
2023/07/28 01:31:04;;;;;;;12.68;9.10;;;;;;;;;;5096550;28;20019;-74
2023/07/28 01:33:29;;;;;;;12.20;8.63;;;;;;;;;;5097550;28;20024;-74
2023/07/28 01:35:55;;;;;;;12.52;8.10;;;;;;;;;;5097311;28;20496;-74
2023/07/28 01:38:20;;;;;;;11.98;6.78;;;;;;;;;;5096987;28;20015;-74
2023/07/28 01:40:45;;;;;;;12.00;7.93;;;;;;;;;;5076879;28;20469;-74
2023/07/28 01:43:11;;;;;;;12.15;7.80;;;;;;;;;;5076205;28;20473;-73
2023/07/28 01:45:36;;;;;;;13.90;8.85;;;;;;;;;;5094931;28;20024;-74
2023/07/28 01:48:01;;;;;;;9.88;7.30;;;;;;;;;;5077320;28;20023;-74
2023/07/28 01:50:27;;;;;;;11.98;8.73;;;;;;;;;;5077273;28;20024;-74
2023/07/28 01:52:52;;;;;;;14.70;10.02;;;;;;;;;;5077430;28;20023;-74
2023/07/28 01:55:17;;;;;;;11.95;8.45;;;;;;;;;;5077007;28;20028;-74
2023/07/28 01:57:54;;;;;;;14.80;9.20;;;;;;;;;;5076096;28;20048;-74
2023/07/28 02:00:19;;;;;;;14.98;10.35;;;;;;;;;;5094293;28;20114;-74
2023/07/28 02:02:45;;;;;;;11.88;7.93;;;;;;;;;;5076186;28;20598;-74
2023/07/28 02:05:10;;;;;;;14.27;9.88;;;;;;;;;;5059797;28;20027;-74
2023/07/28 02:07:35;;;;;;;17.75;10.43;;;;;;;;;;5094724;28;20016;-74
2023/07/28 02:10:01;;;;;;;15.63;10.00;;;;;;;;;;5094119;28;20020;-73
2023/07/28 02:12:26;;;;;;;14.63;9.85;;;;;;;;;;5075810;28;20432;-74
2023/07/28 02:14:51;;;;;;;15.57;10.90;;;;;;;;;;5094208;28;20027;-74
2023/07/28 02:17:16;;;;;;;12.73;8.57;;;;;;;;;;5076424;28;20099;-74
2023/07/28 02:19:42;;;;;;;13.10;8.98;;;;;;;;;;5076001;28;20020;-73
2023/07/28 02:22:07;;;;;;;15.88;10.25;;;;;;;;;;5094295;28;20028;-74
2023/07/28 02:24:32;;;;;;;17.15;10.63;;;;;;;;;;5075599;28;20027;-73
2023/07/28 02:26:57;;;;;;;12.15;8.40;;;;;;;;;;5086795;28;20047;-73
2023/07/28 02:29:23;;;;;;;14.63;9.80;;;;;;;;;;5114695;28;20161;-73
2023/07/28 02:31:48;;;;;;;15.18;9.48;;;;;;;;;;5095412;28;20019;-74
2023/07/28 02:34:13;;;;;;;13.70;9.95;;;;;;;;;;5096307;28;20061;-74
2023/07/28 02:36:39;;;;;;;15.77;10.07;;;;;;;;;;5113281;28;20020;-74
2023/07/28 02:39:04;;;;;;;20.88;10.73;;;;;;;;;;5084327;28;20055;-74
2023/07/28 02:41:29;;;;;;;13.90;9.43;;;;;;;;;;5107573;28;20073;-74
2023/07/28 02:43:54;;;;;;;17.13;10.20;;;;;;;;;;5069934;28;20039;-74
2023/07/28 02:46:20;;;;;;;16.02;10.15;;;;;;;;;;5077505;28;20499;-74
2023/07/28 02:48:45;;;;;;;14.80;10.23;;;;;;;;;;5075282;28;20036;-74
2023/07/28 02:51:10;;;;;;;11.75;8.07;;;;;;;;;;5075541;28;20506;-74
2023/07/28 02:53:36;;;;;;;23.88;10.45;;;;;;;;;;5093437;28;20449;-74
2023/07/28 02:56:01;;;;;;;13.55;9.80;;;;;;;;;;5093646;28;20028;-74
2023/07/28 02:58:26;;;;;;;18.50;10.63;;;;;;;;;;5075408;28;20024;-74
2023/07/28 03:00:52;;;;;;;14.80;10.10;;;;;;;;;;5075488;28;20036;-74
2023/07/28 03:03:17;;;;;;;18.73;11.20;;;;;;;;;;5074843;28;20048;-74
2023/07/28 03:05:42;;;;;;;16.45;9.30;;;;;;;;;;5093755;28;20027;-73
2023/07/28 03:08:08;;;;;;;18.48;11.75;;;;;;;;;;5075358;28;20023;-73
2023/07/28 03:10:33;;;;;;;18.67;10.60;;;;;;;;;;5093401;28;20024;-73
2023/07/28 03:12:58;;;;;;;15.70;9.35;;;;;;;;;;5093508;28;20130;-74
2023/07/28 03:15:24;;;;;;;17.65;10.52;;;;;;;;;;5092734;28;20020;-73
2023/07/28 03:17:50;;;;;;;17.55;10.32;;;;;;;;;;5094109;28;20069;-74
2023/07/28 03:20:15;;;;;;;15.45;9.88;;;;;;;;;;5095216;28;20069;-74
2023/07/28 03:22:40;;;;;;;14.23;9.05;;;;;;;;;;5095085;28;20027;-74
2023/07/28 03:25:06;;;;;;;11.32;8.10;;;;;;;;;;5099637;28;20073;-74
2023/07/28 03:27:31;;;;;;;16.73;9.02;;;;;;;;;;5093135;28;20032;-73
2023/07/28 03:29:57;;;;;;;18.25;11.07;;;;;;;;;;5074848;28;20027;-74
2023/07/28 03:32:22;;;;;;;11.75;7.47;;;;;;;;;;5074592;28;20069;-74
2023/07/28 03:34:47;;;;;;;14.18;9.07;;;;;;;;;;5075591;28;20080;-74
2023/07/28 03:37:13;;;;;;;15.05;9.98;;;;;;;;;;5092877;28;20028;-73
2023/07/28 03:39:38;;;;;;;13.80;9.43;;;;;;;;;;5075034;28;20466;-73
2023/07/28 03:42:04;;;;;;;18.75;11.20;;;;;;;;;;5092700;28;20063;-73
2023/07/28 03:44:29;;;;;;;14.35;8.70;;;;;;;;;;5078885;28;20064;-73
2023/07/28 03:46:54;;;;;;;12.80;8.52;;;;;;;;;;5097204;28;20020;-73
2023/07/28 03:49:19;;;;;;;10.93;7.80;;;;;;;;;;5107875;28;20024;-73
2023/07/28 03:51:45;;;;;;;10.57;7.25;;;;;;;;;;5099131;28;20023;-73
2023/07/28 03:54:10;;;;;;;9.13;6.63;;;;;;;;;;5098542;28;20093;-73
2023/07/28 03:56:35;;;;;;;11.57;7.35;;;;;;;;;;5117564;28;20028;-73
2023/07/28 03:59:00;;;;;;;8.90;6.10;;;;;;;;;;5099159;28;20114;-73
2023/07/28 04:01:26;;;;;;;10.25;6.82;;;;;;;;;;5117091;28;20062;-73
2023/07/28 04:03:51;;;;;;;11.55;6.85;;;;;;;;;;5116925;28;20031;-73
2023/07/28 04:06:16;;;;;;;12.80;9.35;;;;;;;;;;5098876;28;20560;-73
2023/07/28 04:08:42;;;;;;;12.85;8.27;;;;;;;;;;5117424;28;20388;-73
2023/07/28 04:11:07;;;;;;;11.10;7.65;;;;;;;;;;5098960;28;20020;-73
2023/07/28 04:13:33;;;;;;;10.02;7.13;;;;;;;;;;5107417;28;20020;-73
2023/07/28 04:15:59;;;;;;;11.85;7.85;;;;;;;;;;5095921;28;20055;-73
2023/07/28 04:18:24;;;;;;;9.32;6.00;;;;;;;;;;5096246;28;20482;-73
2023/07/28 04:20:50;;;;;;;10.98;6.68;;;;;;;;;;5096518;28;20082;-73
2023/07/28 04:23:15;;;;;;;9.25;5.97;;;;;;;;;;5078062;28;20031;-73
2023/07/28 04:25:40;;;;;;;11.77;7.63;;;;;;;;;;5094400;28;20027;-73
2023/07/28 04:28:05;;;;;;;13.50;8.88;;;;;;;;;;5116658;28;20041;-73
2023/07/28 04:30:31;;;;;;;11.02;7.25;;;;;;;;;;5116001;28;20396;-73
2023/07/28 04:32:56;;;;;;;9.48;6.60;;;;;;;;;;5098458;28;20031;-73
2023/07/28 04:35:21;;;;;;;12.65;8.35;;;;;;;;;;5098631;28;20102;-73
2023/07/28 04:37:47;;;;;;;10.30;7.30;;;;;;;;;;5116404;28;20023;-73
2023/07/28 04:40:12;;;;;;;15.75;9.32;;;;;;;;;;5098214;28;20031;-73
2023/07/28 04:42:40;;;;;;;14.13;8.63;;;;;;;;;;5115980;28;20051;-73
2023/07/28 04:45:06;;;;;;;13.10;8.43;;;;;;;;;;5116009;28;20026;-73
2023/07/28 04:47:31;;;;;;;13.90;8.30;;;;;;;;;;5116378;28;20094;-73
2023/07/28 04:49:57;;;;;;;16.38;10.35;;;;;;;;;;5116194;28;20023;-73
2023/07/28 04:52:22;;;;;;;15.95;9.23;;;;;;;;;;5116636;28;20023;-73
2023/07/28 04:54:47;;;;;;;15.20;10.30;;;;;;;;;;5115557;28;20098;-73
2023/07/28 04:57:12;;;;;;;16.70;11.15;;;;;;;;;;5115745;28;20024;-73
2023/07/28 04:59:38;;;;;;;14.57;9.15;;;;;;;;;;5116381;28;20043;-73
2023/07/28 05:02:03;;;;;;;15.30;9.65;;;;;;;;;;5097932;28;20038;-73
2023/07/28 05:04:29;;;;;;;13.70;8.52;;;;;;;;;;5116396;28;20072;-73
2023/07/28 05:06:54;;;;;;;17.35;12.00;;;;;;;;;;5097439;28;20089;-73
2023/07/28 05:09:19;;;;;;;15.95;9.80;;;;;;;;;;5116117;28;20051;-73
2023/07/28 05:11:45;;;;;;;13.20;8.55;;;;;;;;;;5097721;28;20024;-73
2023/07/28 05:14:10;;;;;;;10.32;6.90;;;;;;;;;;5115467;28;20456;-73
2023/07/28 05:16:36;;;;;;;14.02;9.10;;;;;;;;;;5116207;28;20053;-73
2023/07/28 05:19:01;;;;;;;14.73;9.50;;;;;;;;;;5097690;28;20023;-73
2023/07/28 05:21:26;;;;;;;15.05;9.55;;;;;;;;;;5097711;28;20060;-73
2023/07/28 05:23:52;;;;;;;11.93;7.47;;;;;;;;;;5115782;28;20465;-73
2023/07/28 05:26:17;;;;;;;8.10;4.90;;;;;;;;;;5115488;28;20500;-73
2023/07/28 05:28:42;;;;;;;9.68;6.18;;;;;;;;;;5115684;28;20089;-72
2023/07/28 05:31:08;;;;;;;13.05;8.10;;;;;;;;;;5115981;28;20044;-73
2023/07/28 05:33:33;;;;;;;10.73;7.25;;;;;;;;;;5115700;28;20460;-72
2023/07/28 05:36:03;;;;;;;16.05;10.40;;;;;;;;;;5096858;28;20508;-72
2023/07/28 05:38:28;;;;;;;12.77;8.57;;;;;;;;;;5115477;28;20473;-72
2023/07/28 05:41:00;;;;;;;15.98;8.88;;;;;;;;;;5097346;28;20114;-72
2023/07/28 05:43:27;;;;;;;16.13;10.65;;;;;;;;;;5115021;28;20080;-73
2023/07/28 05:45:52;;;;;;;12.85;8.60;;;;;;;;;;5097169;28;20532;-72
2023/07/28 05:48:17;;;;;;;14.15;9.25;;;;;;;;;;5115441;28;20115;-73
2023/07/28 05:50:42;;;;;;;21.52;11.60;;;;;;;;;;5116550;28;20031;-72
2023/07/28 05:53:08;;;;;;;15.82;10.52;;;;;;;;;;5097265;28;20072;-72
2023/07/28 05:55:33;;;;;;;11.35;7.80;;;;;;;;;;5115644;28;20032;-72
2023/07/28 05:57:58;;;;;;;11.27;7.03;;;;;;;;;;5116799;28;20473;-73
2023/07/28 06:00:23;;;;;;;14.32;10.05;;;;;;;;;;5115119;28;20072;-73
2023/07/28 06:02:49;;;;;;;14.85;9.20;;;;;;;;;;5097174;28;20080;-73
2023/07/28 06:05:14;;;;;;;11.13;7.72;;;;;;;;;;5096347;28;20020;-73
2023/07/28 06:07:41;;;;;;;15.13;10.00;;;;;;;;;;5114141;28;20506;-73
2023/07/28 06:10:07;;;;;;;11.35;7.95;;;;;;;;;;5096578;28;20096;-74
2023/07/28 06:12:32;;;;;;;16.30;9.25;;;;;;;;;;5096586;28;20102;-73
2023/07/28 06:14:57;;;;;;;13.40;9.50;;;;;;;;;;5110440;28;20107;-74
2023/07/28 06:17:22;;;;;;;15.43;9.88;;;;;;;;;;5092745;28;20019;-74
2023/07/28 06:19:48;;;;;;;11.20;7.57;;;;;;;;;;5076263;28;20016;-73
2023/07/28 06:22:13;;;;;;;15.35;9.18;;;;;;;;;;5071630;28;20413;-73
2023/07/28 06:24:38;;;;;;;13.15;8.05;;;;;;;;;;5095765;28;20069;-73
2023/07/28 06:27:08;;;;;;;11.23;7.13;;;;;;;;;;5114404;28;20023;-73
2023/07/28 06:29:33;;;;;;;11.57;8.35;;;;;;;;;;5114286;28;20020;-73
2023/07/28 06:31:58;;;;;;;10.27;6.45;;;;;;;;;;5114179;28;20390;-73
2023/07/28 06:34:24;;;;;;;16.42;9.15;;;;;;;;;;5114355;28;20023;-73
2023/07/28 06:36:49;;;;;;;14.90;7.80;;;;;;;;;;5095819;28;20031;-73
2023/07/28 06:39:14;;;;;;;12.55;8.13;;;;;;;;;;5114329;28;20027;-73
2023/07/28 06:41:40;;;;;;;11.50;7.20;;;;;;;;;;5096118;28;20023;-73
2023/07/28 06:44:05;;;;;;;11.20;6.43;;;;;;;;;;5114275;28;20560;-73
2023/07/28 06:46:30;;;;;;;8.93;5.57;;;;;;;;;;5066382;28;20097;-73
2023/07/28 06:48:56;;;;;;;6.85;4.13;;;;;;;;;;5093854;28;20023;-73
2023/07/28 06:51:21;;;;;;;12.98;6.20;;;;;;;;;;5074993;28;20546;-73
2023/07/28 06:53:46;;;;;;;10.15;6.22;;;;;;;;;;5094304;28;20028;-73
2023/07/28 06:56:12;;;;;;;6.38;5.07;;;;;;;;;;5077851;28;20028;-73
2023/07/28 06:58:37;;;;;;;7.10;5.82;;;;;;;;;;5104562;28;20470;-72
2023/07/28 07:01:02;;;;;;;7.40;5.20;;;;;;;;;;5081497;28;20028;-73
2023/07/28 07:03:27;;;;;;;9.93;5.63;;;;;;;;;;5099844;28;20024;-73
2023/07/28 07:05:53;;;;;;;7.13;4.97;;;;;;;;;;5106434;28;20524;-74
2023/07/28 07:08:18;;;;;;;7.32;4.97;;;;;;;;;;5099780;28;20023;-73
2023/07/28 07:10:50;;;;;;;7.40;4.88;;;;;;;;;;5095735;28;20034;-73
2023/07/28 07:13:15;;;;;;;6.88;5.65;;;;;;;;;;5113646;28;20032;-73
2023/07/28 07:15:42;;;;;;;5.80;4.30;;;;;;;;;;5113853;28;20020;-74
2023/07/28 07:18:07;;;;;;;6.50;3.95;;;;;;;;;;5113386;28;20016;-74
2023/07/28 07:20:38;;;;;;;7.25;4.30;;;;;;;;;;5113701;28;20023;-74
2023/07/28 07:23:06;;;;;;;8.18;4.72;;;;;;;;;;5095674;28;20030;-73
2023/07/28 07:25:31;;;;;;;7.38;4.53;;;;;;;;;;5094500;28;20495;-73
2023/07/28 07:27:57;;;;;;;4.97;3.15;;;;;;;;;;5095380;28;20031;-73
2023/07/28 07:30:22;;;;;;;5.15;3.95;;;;;;;;;;5113410;28;20076;-73
2023/07/28 07:32:48;;;;;;;4.10;3.28;;;;;;;;;;5113597;28;20032;-74
2023/07/28 07:35:13;;;;;;;4.25;2.92;;;;;;;;;;5094702;28;20038;-75
2023/07/28 07:37:39;;;;;;;6.53;3.30;;;;;;;;;;5114203;28;20472;-74
2023/07/28 07:40:07;;;;;;;5.38;3.15;;;;;;;;;;5114436;28;20088;-75
2023/07/28 07:42:44;;;;;;;5.28;3.38;;;;;;;;;;5093301;28;20015;-75
2023/07/28 07:45:10;;;;;;;6.38;3.58;;;;;;;;;;5055362;28;20024;-74
2023/07/28 07:47:36;;;;;;;8.45;5.10;;;;;;;;;;5073271;28;20020;-75
2023/07/28 07:50:01;;;;;;;4.00;3.20;;;;;;;;;;5055653;28;20020;-74
2023/07/28 07:52:26;;;;;;;5.72;3.58;;;;;;;;;;5088107;28;20370;-74
2023/07/28 07:54:52;;;;;;;5.25;3.28;;;;;;;;;;5093396;28;20020;-75
2023/07/28 07:57:17;;;;;;;5.88;4.05;;;;;;;;;;5093480;28;20024;-75
2023/07/28 07:59:42;;;;;;;7.28;3.53;;;;;;;;;;5075108;28;20027;-75
2023/07/28 08:02:08;;;;;;;5.32;3.67;;;;;;;;;;5093243;28;20032;-74
2023/07/28 08:04:33;;;;;;;4.68;3.30;;;;;;;;;;5093879;28;20039;-75
2023/07/28 08:06:59;;;;;;;5.43;3.13;;;;;;;;;;5094218;28;20073;-74
2023/07/28 08:09:24;;;;;;;5.20;3.45;;;;;;;;;;5113982;28;20027;-74
2023/07/28 08:11:50;;;;;;;3.85;2.83;;;;;;;;;;5113385;28;20026;-75
2023/07/28 08:14:15;;;;;;;3.33;2.13;;;;;;;;;;5113685;28;20024;-74
2023/07/28 08:16:40;;;;;;;4.22;2.40;;;;;;;;;;5106958;28;20020;-76
2023/07/28 08:19:05;;;;;;;3.47;2.42;;;;;;;;;;5093263;28;20020;-74
2023/07/28 08:21:36;;;;;;;3.33;2.22;;;;;;;;;;5093352;28;20020;-75
2023/07/28 08:24:01;;;;;;;3.90;2.65;;;;;;;;;;5082812;28;20020;-75
2023/07/28 08:26:27;;;;;;;4.90;2.70;;;;;;;;;;5095648;28;20038;-76
2023/07/28 08:28:52;;;;;;;3.67;2.30;;;;;;;;;;5113510;28;20072;-76
2023/07/28 08:31:17;;;;;;;6.82;3.05;;;;;;;;;;5098213;28;20055;-75
2023/07/28 08:33:42;;;;;;;5.22;2.92;;;;;;;;;;5117014;28;20032;-76
2023/07/28 08:36:08;;;;;;;4.75;2.40;;;;;;;;;;5100925;28;20073;-75
2023/07/28 08:38:33;;;;;;;5.30;2.83;;;;;;;;;;5097355;28;20119;-75
2023/07/28 08:40:58;;;;;;;5.25;2.20;;;;;;;;;;5080578;28;20024;-74
2023/07/28 08:43:24;;;;;;;4.07;2.95;;;;;;;;;;5096961;28;20632;-75
2023/07/28 08:45:50;;;;;;;2.90;1.80;;;;;;;;;;5078552;28;20055;-75
2023/07/28 08:48:15;;;;;;;4.72;2.30;;;;;;;;;;5078692;28;20020;-73
2023/07/28 08:50:40;;;;;;;3.90;2.60;;;;;;;;;;5096264;28;20119;-73
2023/07/28 08:53:05;;;;;;;3.05;2.10;;;;;;;;;;5096655;28;20056;-72
2023/07/28 08:55:32;;;;;;;3.97;2.72;;;;;;;;;;5096161;28;20016;-73
2023/07/28 08:58:16;;;;;;;3.83;2.15;;;;;;;;;;5061815;28;20077;-73
2023/07/28 09:00:42;;;;;;;4.30;2.92;;;;;;;;;;5095537;28;20043;-73
2023/07/28 09:03:11;;;;;;;2.88;2.00;;;;;;;;;;5117136;28;20042;-73
2023/07/28 09:05:36;;;;;;;4.72;1.85;;;;;;;;;;5097950;28;20015;-73
2023/07/28 09:08:01;;;;;;;4.40;2.42;;;;;;;;;;5116793;28;20361;-73
2023/07/28 09:10:40;;;;;;;4.13;2.15;;;;;;;;;;5116124;28;20519;-73
2023/07/28 09:13:09;;;;;;;4.30;2.13;;;;;;;;;;5116727;28;20027;-73
2023/07/28 09:15:35;;;;;;;2.80;1.90;;;;;;;;;;5098472;28;20101;-73
2023/07/28 09:18:00;;;;;;;3.00;1.60;;;;;;;;;;5097540;28;20027;-73
2023/07/28 09:20:33;;;;;;;2.53;1.95;;;;;;;;;;5116284;28;20020;-73
2023/07/28 09:22:59;;;;;;;3.75;2.03;;;;;;;;;;5098201;28;20047;-72
2023/07/28 09:25:24;;;;;;;2.55;1.55;;;;;;;;;;5098338;28;20460;-73
2023/07/28 09:27:50;;;;;;;3.20;2.00;;;;;;;;;;5117206;28;20476;-72
2023/07/28 09:30:16;;;;;;;4.35;2.13;;;;;;;;;;5082796;28;20020;-74
2023/07/28 09:32:47;;;;;;;3.15;1.80;;;;;;;;;;5079804;28;20020;-72
2023/07/28 09:35:13;;;;;;;3.47;1.80;;;;;;;;;;5115935;28;20035;-72
2023/07/28 09:37:43;;;;;;;3.10;1.60;;;;;;;;;;5115624;28;20084;-71
2023/07/28 09:40:19;;;;;;;2.80;1.92;;;;;;;;;;5097600;28;20099;-73
2023/07/28 09:42:49;;;;;;;2.60;1.88;;;;;;;;;;5115365;28;20181;-73
2023/07/28 09:45:15;;;;;;;2.60;1.80;;;;;;;;;;5080658;28;20015;-72
2023/07/28 09:47:41;;;;;;;4.75;2.00;;;;;;;;;;5101562;28;20024;-72
2023/07/28 09:50:08;;;;;;;2.85;1.83;;;;;;;;;;5076437;28;20031;-73
2023/07/28 09:52:41;;;;;;;3.10;1.88;;;;;;;;;;5076779;28;20028;-71
2023/07/28 09:55:10;;;;;;;2.50;1.60;;;;;;;;;;5076422;28;20101;-72
2023/07/28 09:57:39;;;;;;;2.10;1.50;;;;;;;;;;5076490;28;20481;-72
2023/07/28 10:00:08;;;;;;;4.45;1.85;;;;;;;;;;5094612;28;20028;-72
2023/07/28 10:02:35;;;;;;;2.70;1.85;;;;;;;;;;5076378;28;20524;-71
2023/07/28 10:05:01;;;;;;;3.05;1.92;;;;;;;;;;5088725;28;20015;-72
2023/07/28 10:07:27;;;;;;;2.97;2.13;;;;;;;;;;5096803;28;20031;-71
2023/07/28 10:09:54;;;;;;;2.35;1.70;;;;;;;;;;5096918;28;20055;-74
2023/07/28 10:12:26;;;;;;;2.78;1.90;;;;;;;;;;5095848;28;20019;-74
2023/07/28 10:15:05;;;;;;;4.55;1.85;;;;;;;;;;5096914;28;20111;-74
2023/07/28 10:17:34;;;;;;;2.63;1.90;;;;;;;;;;5096599;28;20023;-74
2023/07/28 10:20:08;;;;;;;3.97;1.65;;;;;;;;;;5114813;28;20027;-73
2023/07/28 10:22:43;;;;;;;2.40;1.77;;;;;;;;;;5114359;28;20024;-74
2023/07/28 10:25:10;;;;;;;3.38;1.85;;;;;;;;;;5095882;28;20114;-71
2023/07/28 10:27:38;;;;;;;3.58;2.00;;;;;;;;;;5079116;28;20487;-71
2023/07/28 10:30:05;;;;;;;3.42;1.92;;;;;;;;;;5095864;28;20488;-71
2023/07/28 10:32:45;;;;;;;3.83;1.88;;;;;;;;;;5095735;28;20028;-71
2023/07/28 10:35:13;;;;;;;3.00;1.63;;;;;;;;;;5089876;28;20024;-71
2023/07/28 10:37:39;;;;;;;3.45;1.75;;;;;;;;;;5073687;28;20036;-71
2023/07/28 10:40:30;;;;;;;3.28;1.90;;;;;;;;;;5055484;28;20038;-71
2023/07/28 10:42:57;;;;;;;2.78;1.67;;;;;;;;;;5055532;28;20027;-72
2023/07/28 10:45:23;;;;;;;2.53;1.58;;;;;;;;;;5055565;28;20025;-74
2023/07/28 10:47:49;;;;;;;2.58;1.70;;;;;;;;;;5055117;28;20020;-74
2023/07/28 10:50:15;;;;;;;2.55;1.67;;;;;;;;;;5055869;28;20051;-74
2023/07/28 10:52:44;;;;;;;2.80;1.73;;;;;;;;;;5055042;28;20085;-74
2023/07/28 10:55:21;;;;;;;3.20;2.03;;;;;;;;;;5055709;28;20016;-74
2023/07/28 10:57:48;;;;;;;1.85;1.35;;;;;;;;;;5073519;28;20085;-74
2023/07/28 11:00:17;;;;;;;3.75;1.80;;;;;;;;;;5055035;28;20043;-74
2023/07/28 11:02:43;;;;;;;2.42;1.77;;;;;;;;;;5055779;28;20024;-74
2023/07/28 11:05:13;;;;;;;2.10;1.60;;;;;;;;;;5073750;28;20047;-75
2023/07/28 11:07:43;;;;;;;2.75;1.73;;;;;;;;;;5073191;28;20095;-74
2023/07/28 11:10:11;;;;;;;3.65;1.75;;;;;;;;;;5073087;28;20023;-74
2023/07/28 11:12:39;;;;;;;3.22;1.70;;;;;;;;;;5073064;28;20400;-74
2023/07/28 11:15:10;;;;;;;2.42;1.73;;;;;;;;;;5054622;28;20401;-74
2023/07/28 11:17:36;;;;;;;2.50;1.50;;;;;;;;;;5073212;28;20485;-74
2023/07/28 11:20:02;;;;;;;3.20;1.40;;;;;;;;;;5073219;28;20021;-74
2023/07/28 11:22:27;;;;;;;2.97;1.80;;;;;;;;;;5073001;28;20020;-74
2023/07/28 11:24:53;;;;;;;4.15;2.00;;;;;;;;;;5072573;28;20108;-74
2023/07/28 11:27:18;;;;;;;2.88;1.40;;;;;;;;;;5055218;28;20035;-74
2023/07/28 11:29:43;;;;;;;2.90;1.70;;;;;;;;;;5073083;28;20032;-74
2023/07/28 11:32:09;;;;;;;3.17;1.80;;;;;;;;;;5072913;28;20028;-74
2023/07/28 11:34:38;;;;;;;3.50;1.40;;;;;;;;;;5043983;28;20020;-74
2023/07/28 11:37:05;;;;;;;4.15;1.90;;;;;;;;;;5092755;28;20028;-73
2023/07/28 11:39:31;;;;;;;2.63;1.75;;;;;;;;;;5058450;28;20023;-73
2023/07/28 11:41:57;;;;;;;2.92;1.83;;;;;;;;;;5058613;28;20497;-73
2023/07/28 11:44:24;;;;;;;3.90;2.08;;;;;;;;;;5093157;28;20023;-73
2023/07/28 11:46:53;;;;;;;2.67;1.55;;;;;;;;;;5075604;28;20028;-74
2023/07/28 11:49:22;;;;;;;3.58;1.90;;;;;;;;;;5093319;28;20020;-74
2023/07/28 11:51:52;;;;;;;3.33;1.83;;;;;;;;;;5092477;28;20020;-74
2023/07/28 11:54:21;;;;;;;2.63;1.67;;;;;;;;;;5092939;28;20043;-73
2023/07/28 11:56:47;;;;;;;3.08;1.63;;;;;;;;;;5075497;28;20016;-74
2023/07/28 11:59:17;;;;;;;4.82;1.90;;;;;;;;;;5093313;28;20024;-73
2023/07/28 12:02:02;;;;;;;2.60;2.00;;;;;;;;;;5092671;28;20024;-72
2023/07/28 12:04:29;;;;;;;3.17;2.10;;;;;;;;;;5076357;28;20031;-71
2023/07/28 12:07:11;;;;;;;2.63;1.92;;;;;;;;;;5078639;28;20051;-72
2023/07/28 12:09:46;;;;;;;3.30;2.15;;;;;;;;;;5079150;28;20067;-72
2023/07/28 12:12:14;;;;;;;2.38;1.83;;;;;;;;;;5096588;28;20106;-71
2023/07/28 12:14:40;;;;;;;3.58;2.40;;;;;;;;;;5078682;28;20024;-72
2023/07/28 12:17:15;;;;;;;3.15;1.92;;;;;;;;;;5077852;28;20496;-71
2023/07/28 12:19:42;;;;;;;3.22;1.95;;;;;;;;;;5096529;28;20383;-71
2023/07/28 12:22:07;;;;;;;3.08;1.83;;;;;;;;;;5078111;28;20031;-72
2023/07/28 12:24:33;;;;;;;2.65;1.60;;;;;;;;;;5096777;28;20393;-72
2023/07/28 12:26:58;;;;;;;2.97;1.77;;;;;;;;;;5078117;28;20039;-71
2023/07/28 12:29:24;;;;;;;2.50;1.80;;;;;;;;;;5096458;28;20024;-71
2023/07/28 12:31:49;;;;;;;5.00;1.80;;;;;;;;;;5077526;28;20169;-71
2023/07/28 12:34:14;;;;;;;2.83;1.95;;;;;;;;;;5078205;28;20032;-71
2023/07/28 12:36:40;;;;;;;2.55;1.70;;;;;;;;;;5096192;28;20028;-71
2023/07/28 12:39:05;;;;;;;3.83;1.88;;;;;;;;;;5096397;28;20052;-73
2023/07/28 12:41:31;;;;;;;2.90;1.83;;;;;;;;;;5077765;28;20020;-72
2023/07/28 12:43:56;;;;;;;4.93;2.28;;;;;;;;;;5096447;28;20056;-71
2023/07/28 12:46:21;;;;;;;4.70;2.10;;;;;;;;;;5096118;28;20051;-71
2023/07/28 12:48:47;;;;;;;2.33;1.88;;;;;;;;;;5096401;28;20094;-72
2023/07/28 12:51:12;;;;;;;2.92;1.90;;;;;;;;;;5095713;28;20069;-70
2023/07/28 12:53:37;;;;;;;2.85;2.00;;;;;;;;;;5078152;28;20397;-72
2023/07/28 12:56:03;;;;;;;3.30;2.30;;;;;;;;;;5077806;28;20024;-72
2023/07/28 12:58:28;;;;;;;2.75;1.92;;;;;;;;;;5077573;28;20020;-72
2023/07/28 13:00:54;;;;;;;3.80;2.33;;;;;;;;;;5078085;28;20405;-71
2023/07/28 13:03:19;;;;;;;2.80;2.13;;;;;;;;;;5077354;28;20104;-72
2023/07/28 13:05:46;;;;;;;3.25;1.77;;;;;;;;;;5078090;28;20111;-74
2023/07/28 13:08:12;;;;;;;3.95;1.73;;;;;;;;;;5095939;28;20028;-74
2023/07/28 13:10:37;;;;;;;2.63;1.80;;;;;;;;;;5095940;28;20026;-74
2023/07/28 13:13:03;;;;;;;4.68;2.00;;;;;;;;;;5077140;28;20398;-74
2023/07/28 13:15:28;;;;;;;3.17;1.80;;;;;;;;;;5077797;28;20031;-74
2023/07/28 13:17:53;;;;;;;2.25;1.70;;;;;;;;;;5095979;28;20070;-75
2023/07/28 13:20:19;;;;;;;3.33;2.00;;;;;;;;;;5095924;28;20070;-74
2023/07/28 13:22:44;;;;;;;5.22;2.03;;;;;;;;;;5077051;28;20499;-74
2023/07/28 13:25:10;;;;;;;3.60;1.77;;;;;;;;;;5077962;28;20039;-74
2023/07/28 13:27:35;;;;;;;2.67;2.03;;;;;;;;;;5077752;28;20389;-74
2023/07/28 13:30:02;;;;;;;5.75;2.20;;;;;;;;;;5096277;28;20043;-74
2023/07/28 13:32:27;;;;;;;3.03;1.80;;;;;;;;;;5077874;28;20078;-74
2023/07/28 13:34:53;;;;;;;2.70;2.10;;;;;;;;;;5062353;28;20359;-74
2023/07/28 13:37:19;;;;;;;4.10;1.77;;;;;;;;;;5096328;28;20067;-74
2023/07/28 13:39:45;;;;;;;2.50;1.73;;;;;;;;;;5094909;28;20024;-74
2023/07/28 13:42:11;;;;;;;3.08;1.80;;;;;;;;;;5077421;28;20092;-74
2023/07/28 13:44:37;;;;;;;3.28;2.00;;;;;;;;;;5095581;28;20028;-74
2023/07/28 13:47:03;;;;;;;3.28;1.92;;;;;;;;;;5076548;28;20103;-73
2023/07/28 13:49:28;;;;;;;2.97;2.03;;;;;;;;;;5076979;28;20020;-74
2023/07/28 13:51:54;;;;;;;3.35;1.95;;;;;;;;;;5085460;28;20019;-74
2023/07/28 13:54:19;;;;;;;3.70;2.05;;;;;;;;;;5095010;28;20020;-74
2023/07/28 13:56:44;;;;;;;4.30;2.47;;;;;;;;;;5097045;28;20027;-74
2023/07/28 13:59:10;;;;;;;3.47;1.80;;;;;;;;;;5115293;28;20041;-74
2023/07/28 14:01:35;;;;;;;3.70;1.83;;;;;;;;;;5079600;28;20043;-73
2023/07/28 14:04:00;;;;;;;2.70;1.90;;;;;;;;;;5114305;28;20020;-74
2023/07/28 14:06:25;;;;;;;3.42;1.83;;;;;;;;;;5114969;28;20076;-75
2023/07/28 14:08:51;;;;;;;2.92;1.92;;;;;;;;;;5115789;28;20045;-74
2023/07/28 14:11:16;;;;;;;3.35;1.73;;;;;;;;;;5115389;28;20016;-75
2023/07/28 14:13:41;;;;;;;4.43;2.30;;;;;;;;;;5114696;28;20073;-74
2023/07/28 14:16:09;;;;;;;2.53;2.10;;;;;;;;;;5115019;28;20384;-75
2023/07/28 14:18:34;;;;;;;4.65;2.05;;;;;;;;;;5114026;28;20076;-75
2023/07/28 14:21:00;;;;;;;3.47;2.28;;;;;;;;;;5115162;28;20019;-76
2023/07/28 14:23:27;;;;;;;4.32;2.40;;;;;;;;;;5115158;28;20370;-74
2023/07/28 14:25:52;;;;;;;8.52;2.10;;;;;;;;;;5096815;28;20114;-75
2023/07/28 14:28:18;;;;;;;2.10;1.80;;;;;;;;;;5095305;28;20055;-74
2023/07/28 14:30:46;;;;;;;3.08;2.13;;;;;;;;;;5096543;28;20024;-76